sensor_id;sensor_type;location;lat;lon;timestamp;P1;durP1;ratioP1;P2;durP2;ratioP2
45806;SDS011;31507;51.494;7.518;2023-04-01T00:00:18;3.33;;;0.90;;
45806;SDS011;31507;51.494;7.518;2023-04-01T00:02:44;3.40;;;1.08;;
45806;SDS011;31507;51.494;7.518;2023-04-01T00:05:10;3.20;;;0.95;;
45806;SDS011;31507;51.494;7.518;2023-04-01T00:07:37;3.70;;;1.10;;
45806;SDS011;31507;51.494;7.518;2023-04-01T00:10:04;2.92;;;1.00;;
45806;SDS011;31507;51.494;7.518;2023-04-01T00:12:35;6.65;;;1.40;;
45806;SDS011;31507;51.494;7.518;2023-04-01T00:15:02;1.58;;;0.60;;
45806;SDS011;31507;51.494;7.518;2023-04-01T00:17:28;5.00;;;0.90;;
45806;SDS011;31507;51.494;7.518;2023-04-01T00:19:54;2.95;;;1.05;;
45806;SDS011;31507;51.494;7.518;2023-04-01T00:22:21;8.23;;;1.27;;
45806;SDS011;31507;51.494;7.518;2023-04-01T00:24:48;2.85;;;0.90;;
45806;SDS011;31507;51.494;7.518;2023-04-01T00:27:14;3.17;;;0.90;;
45806;SDS011;31507;51.494;7.518;2023-04-01T00:29:44;4.68;;;1.10;;
45806;SDS011;31507;51.494;7.518;2023-04-01T00:32:11;5.13;;;1.20;;
45806;SDS011;31507;51.494;7.518;2023-04-01T00:34:37;4.00;;;0.90;;
45806;SDS011;31507;51.494;7.518;2023-04-01T00:37:04;3.42;;;1.13;;
45806;SDS011;31507;51.494;7.518;2023-04-01T00:39:31;3.25;;;0.98;;
45806;SDS011;31507;51.494;7.518;2023-04-01T00:41:57;3.10;;;0.85;;
45806;SDS011;31507;51.494;7.518;2023-04-01T00:44:24;2.55;;;0.85;;
45806;SDS011;31507;51.494;7.518;2023-04-01T00:46:52;3.88;;;1.05;;
45806;SDS011;31507;51.494;7.518;2023-04-01T00:49:18;3.97;;;1.10;;
45806;SDS011;31507;51.494;7.518;2023-04-01T00:51:49;2.42;;;1.02;;
45806;SDS011;31507;51.494;7.518;2023-04-01T00:54:18;1.33;;;0.75;;
45806;SDS011;31507;51.494;7.518;2023-04-01T00:56:47;4.88;;;1.23;;
45806;SDS011;31507;51.494;7.518;2023-04-01T00:59:16;5.70;;;0.93;;
45806;SDS011;31507;51.494;7.518;2023-04-01T01:01:47;3.80;;;1.02;;
45806;SDS011;31507;51.494;7.518;2023-04-01T01:04:46;4.97;;;0.90;;
45806;SDS011;31507;51.494;7.518;2023-04-01T01:12:46;0.95;;;0.65;;
45806;SDS011;31507;51.494;7.518;2023-04-01T01:18:19;1.60;;;0.63;;
45806;SDS011;31507;51.494;7.518;2023-04-01T01:20:48;3.75;;;0.60;;
45806;SDS011;31507;51.494;7.518;2023-04-01T01:37:20;2.17;;;0.85;;
45806;SDS011;31507;51.494;7.518;2023-04-01T01:39:54;1.10;;;0.65;;
45806;SDS011;31507;51.494;7.518;2023-04-01T01:42:23;2.15;;;0.88;;
45806;SDS011;31507;51.494;7.518;2023-04-01T01:44:52;4.28;;;1.15;;
45806;SDS011;31507;51.494;7.518;2023-04-01T01:47:20;1.65;;;0.80;;
45806;SDS011;31507;51.494;7.518;2023-04-01T01:49:48;3.30;;;1.27;;
45806;SDS011;31507;51.494;7.518;2023-04-01T01:52:17;1.63;;;1.40;;
45806;SDS011;31507;51.494;7.518;2023-04-01T01:54:47;3.65;;;1.10;;
45806;SDS011;31507;51.494;7.518;2023-04-01T01:57:23;2.33;;;1.10;;
45806;SDS011;31507;51.494;7.518;2023-04-01T01:59:52;1.77;;;0.90;;
45806;SDS011;31507;51.494;7.518;2023-04-01T02:02:23;2.15;;;0.80;;
45806;SDS011;31507;51.494;7.518;2023-04-01T02:04:50;3.35;;;1.05;;
45806;SDS011;31507;51.494;7.518;2023-04-01T02:07:21;2.83;;;1.15;;
45806;SDS011;31507;51.494;7.518;2023-04-01T02:09:52;4.07;;;1.10;;
45806;SDS011;31507;51.494;7.518;2023-04-01T02:12:18;3.47;;;1.00;;
45806;SDS011;31507;51.494;7.518;2023-04-01T02:14:53;3.53;;;0.90;;
45806;SDS011;31507;51.494;7.518;2023-04-01T02:17:24;2.60;;;1.08;;
45806;SDS011;31507;51.494;7.518;2023-04-01T02:20:07;4.40;;;0.90;;
45806;SDS011;31507;51.494;7.518;2023-04-01T02:22:40;1.35;;;0.75;;
45806;SDS011;31507;51.494;7.518;2023-04-01T02:25:10;1.00;;;0.60;;
45806;SDS011;31507;51.494;7.518;2023-04-01T02:27:42;1.52;;;0.77;;
45806;SDS011;31507;51.494;7.518;2023-04-01T02:30:09;1.38;;;0.63;;
45806;SDS011;31507;51.494;7.518;2023-04-01T02:32:36;0.80;;;0.63;;
45806;SDS011;31507;51.494;7.518;2023-04-01T02:35:04;2.67;;;1.00;;
45806;SDS011;31507;51.494;7.518;2023-04-01T02:37:35;5.85;;;0.75;;
45806;SDS011;31507;51.494;7.518;2023-04-01T02:40:05;1.15;;;0.50;;
45806;SDS011;31507;51.494;7.518;2023-04-01T02:42:33;1.35;;;0.50;;
45806;SDS011;31507;51.494;7.518;2023-04-01T02:44:59;2.45;;;0.60;;
45806;SDS011;31507;51.494;7.518;2023-04-01T02:47:25;2.63;;;0.77;;
45806;SDS011;31507;51.494;7.518;2023-04-01T02:49:50;1.17;;;0.63;;
45806;SDS011;31507;51.494;7.518;2023-04-01T02:52:16;1.48;;;0.80;;
45806;SDS011;31507;51.494;7.518;2023-04-01T02:54:42;1.33;;;0.65;;
45806;SDS011;31507;51.494;7.518;2023-04-01T02:57:07;3.17;;;0.80;;
45806;SDS011;31507;51.494;7.518;2023-04-01T02:59:33;3.22;;;0.68;;
45806;SDS011;31507;51.494;7.518;2023-04-01T03:01:58;1.25;;;0.60;;
45806;SDS011;31507;51.494;7.518;2023-04-01T03:04:24;1.88;;;0.57;;
45806;SDS011;31507;51.494;7.518;2023-04-01T03:06:50;2.50;;;0.52;;
45806;SDS011;31507;51.494;7.518;2023-04-01T03:09:16;2.55;;;0.60;;
45806;SDS011;31507;51.494;7.518;2023-04-01T03:11:41;0.55;;;0.40;;
45806;SDS011;31507;51.494;7.518;2023-04-01T03:14:07;0.85;;;0.50;;
45806;SDS011;31507;51.494;7.518;2023-04-01T03:16:33;0.57;;;0.45;;
45806;SDS011;31507;51.494;7.518;2023-04-01T03:18:58;2.28;;;0.60;;
45806;SDS011;31507;51.494;7.518;2023-04-01T03:21:26;0.55;;;0.40;;
45806;SDS011;31507;51.494;7.518;2023-04-01T03:23:52;4.18;;;0.75;;
45806;SDS011;31507;51.494;7.518;2023-04-01T03:26:18;1.98;;;0.80;;
45806;SDS011;31507;51.494;7.518;2023-04-01T03:28:43;1.15;;;0.60;;
45806;SDS011;31507;51.494;7.518;2023-04-01T03:31:09;1.17;;;0.40;;
45806;SDS011;31507;51.494;7.518;2023-04-01T03:33:35;0.90;;;0.80;;
45806;SDS011;31507;51.494;7.518;2023-04-01T03:36:01;0.73;;;0.50;;
45806;SDS011;31507;51.494;7.518;2023-04-01T03:38:31;0.95;;;0.50;;
45806;SDS011;31507;51.494;7.518;2023-04-01T03:41:00;2.10;;;0.80;;
45806;SDS011;31507;51.494;7.518;2023-04-01T03:43:26;1.77;;;0.65;;
45806;SDS011;31507;51.494;7.518;2023-04-01T03:45:51;0.50;;;0.50;;
45806;SDS011;31507;51.494;7.518;2023-04-01T03:48:19;2.80;;;0.75;;
45806;SDS011;31507;51.494;7.518;2023-04-01T03:50:45;1.70;;;0.80;;
45806;SDS011;31507;51.494;7.518;2023-04-01T03:53:11;0.88;;;0.50;;
45806;SDS011;31507;51.494;7.518;2023-04-01T03:55:37;1.00;;;0.45;;
45806;SDS011;31507;51.494;7.518;2023-04-01T03:58:04;2.28;;;0.50;;
45806;SDS011;31507;51.494;7.518;2023-04-01T04:00:31;1.40;;;0.50;;
45806;SDS011;31507;51.494;7.518;2023-04-01T04:02:57;2.53;;;0.63;;
45806;SDS011;31507;51.494;7.518;2023-04-01T04:05:23;2.13;;;0.60;;
45806;SDS011;31507;51.494;7.518;2023-04-01T04:07:50;1.10;;;0.50;;
45806;SDS011;31507;51.494;7.518;2023-04-01T04:10:16;2.15;;;0.50;;
45806;SDS011;31507;51.494;7.518;2023-04-01T04:12:42;1.25;;;0.60;;
45806;SDS011;31507;51.494;7.518;2023-04-01T04:15:07;0.50;;;0.50;;
45806;SDS011;31507;51.494;7.518;2023-04-01T04:17:33;0.40;;;0.40;;
45806;SDS011;31507;51.494;7.518;2023-04-01T04:19:59;0.60;;;0.60;;
45806;SDS011;31507;51.494;7.518;2023-04-01T04:22:25;0.52;;;0.45;;
45806;SDS011;31507;51.494;7.518;2023-04-01T04:24:50;1.33;;;0.88;;
45806;SDS011;31507;51.494;7.518;2023-04-01T04:27:16;2.95;;;0.90;;
45806;SDS011;31507;51.494;7.518;2023-04-01T04:29:42;0.95;;;0.90;;
45806;SDS011;31507;51.494;7.518;2023-04-01T04:32:08;3.00;;;1.10;;
45806;SDS011;31507;51.494;7.518;2023-04-01T04:34:33;1.92;;;1.33;;
45806;SDS011;31507;51.494;7.518;2023-04-01T04:36:59;3.13;;;1.33;;
45806;SDS011;31507;51.494;7.518;2023-04-01T04:39:25;2.90;;;1.50;;
45806;SDS011;31507;51.494;7.518;2023-04-01T04:41:50;2.45;;;1.63;;
45806;SDS011;31507;51.494;7.518;2023-04-01T04:44:16;1.60;;;1.50;;
45806;SDS011;31507;51.494;7.518;2023-04-01T04:46:41;3.03;;;1.70;;
45806;SDS011;31507;51.494;7.518;2023-04-01T04:49:07;2.40;;;1.70;;
45806;SDS011;31507;51.494;7.518;2023-04-01T04:51:33;1.73;;;1.60;;
45806;SDS011;31507;51.494;7.518;2023-04-01T04:54:00;2.42;;;2.17;;
45806;SDS011;31507;51.494;7.518;2023-04-01T04:56:26;2.65;;;1.80;;
45806;SDS011;31507;51.494;7.518;2023-04-01T04:58:52;2.08;;;1.88;;
45806;SDS011;31507;51.494;7.518;2023-04-01T05:01:18;7.35;;;2.42;;
45806;SDS011;31507;51.494;7.518;2023-04-01T05:03:44;3.15;;;2.10;;
45806;SDS011;31507;51.494;7.518;2023-04-01T05:06:11;4.63;;;2.20;;
45806;SDS011;31507;51.494;7.518;2023-04-01T05:08:38;2.05;;;1.60;;
45806;SDS011;31507;51.494;7.518;2023-04-01T05:11:06;2.13;;;1.83;;
45806;SDS011;31507;51.494;7.518;2023-04-01T05:13:35;2.33;;;1.70;;
45806;SDS011;31507;51.494;7.518;2023-04-01T05:16:01;2.08;;;1.65;;
45806;SDS011;31507;51.494;7.518;2023-04-01T05:18:27;1.90;;;1.70;;
45806;SDS011;31507;51.494;7.518;2023-04-01T05:20:53;2.20;;;1.70;;
45806;SDS011;31507;51.494;7.518;2023-04-01T05:23:20;2.65;;;2.00;;
45806;SDS011;31507;51.494;7.518;2023-04-01T05:25:47;2.33;;;1.65;;
45806;SDS011;31507;51.494;7.518;2023-04-01T05:28:13;1.80;;;1.67;;
45806;SDS011;31507;51.494;7.518;2023-04-01T05:30:40;2.10;;;1.90;;
45806;SDS011;31507;51.494;7.518;2023-04-01T05:33:06;1.73;;;1.55;;
45806;SDS011;31507;51.494;7.518;2023-04-01T05:35:32;2.10;;;1.88;;
45806;SDS011;31507;51.494;7.518;2023-04-01T05:37:58;2.05;;;1.85;;
45806;SDS011;31507;51.494;7.518;2023-04-01T05:40:24;1.77;;;1.30;;
45806;SDS011;31507;51.494;7.518;2023-04-01T05:42:50;1.67;;;1.25;;
45806;SDS011;31507;51.494;7.518;2023-04-01T05:45:15;2.45;;;1.40;;
45806;SDS011;31507;51.494;7.518;2023-04-01T05:47:41;2.17;;;1.60;;
45806;SDS011;31507;51.494;7.518;2023-04-01T05:50:08;1.23;;;1.10;;
45806;SDS011;31507;51.494;7.518;2023-04-01T05:52:35;1.80;;;1.25;;
45806;SDS011;31507;51.494;7.518;2023-04-01T05:55:02;1.50;;;1.40;;
45806;SDS011;31507;51.494;7.518;2023-04-01T05:57:27;1.27;;;1.17;;
45806;SDS011;31507;51.494;7.518;2023-04-01T05:59:53;2.30;;;1.45;;
45806;SDS011;31507;51.494;7.518;2023-04-01T06:02:19;2.63;;;1.50;;
45806;SDS011;31507;51.494;7.518;2023-04-01T06:04:44;2.15;;;1.40;;
45806;SDS011;31507;51.494;7.518;2023-04-01T06:07:14;2.35;;;1.63;;
45806;SDS011;31507;51.494;7.518;2023-04-01T06:09:41;1.52;;;1.40;;
45806;SDS011;31507;51.494;7.518;2023-04-01T06:20:20;1.17;;;1.08;;
45806;SDS011;31507;51.494;7.518;2023-04-01T06:23:15;1.00;;;1.00;;
45806;SDS011;31507;51.494;7.518;2023-04-01T06:25:50;1.23;;;0.98;;
45806;SDS011;31507;51.494;7.518;2023-04-01T06:50:16;1.38;;;1.17;;
45806;SDS011;31507;51.494;7.518;2023-04-01T06:53:10;0.98;;;0.98;;
45806;SDS011;31507;51.494;7.518;2023-04-01T06:55:53;0.93;;;0.88;;
45806;SDS011;31507;51.494;7.518;2023-04-01T06:58:54;1.20;;;1.10;;
45806;SDS011;31507;51.494;7.518;2023-04-01T07:01:33;1.20;;;1.00;;
45806;SDS011;31507;51.494;7.518;2023-04-01T07:04:05;2.25;;;0.80;;
45806;SDS011;31507;51.494;7.518;2023-04-01T07:06:50;0.98;;;0.90;;
45806;SDS011;31507;51.494;7.518;2023-04-01T07:09:33;1.38;;;0.82;;
45806;SDS011;31507;51.494;7.518;2023-04-01T07:12:03;0.90;;;0.90;;
45806;SDS011;31507;51.494;7.518;2023-04-01T07:14:36;1.00;;;0.90;;
45806;SDS011;31507;51.494;7.518;2023-04-01T07:19:47;2.03;;;0.80;;
45806;SDS011;31507;51.494;7.518;2023-04-01T07:22:33;0.60;;;0.60;;
45806;SDS011;31507;51.494;7.518;2023-04-01T07:25:38;0.77;;;0.77;;
45806;SDS011;31507;51.494;7.518;2023-04-01T07:28:10;0.80;;;0.80;;
45806;SDS011;31507;51.494;7.518;2023-04-01T07:30:58;0.68;;;0.68;;
45806;SDS011;31507;51.494;7.518;2023-04-01T07:33:30;1.08;;;0.73;;
45806;SDS011;31507;51.494;7.518;2023-04-01T07:36:17;0.90;;;0.90;;
45806;SDS011;31507;51.494;7.518;2023-04-01T07:44:15;0.80;;;0.80;;
45806;SDS011;31507;51.494;7.518;2023-04-01T08:06:06;1.00;;;0.90;;
45806;SDS011;31507;51.494;7.518;2023-04-01T08:17:14;1.45;;;1.10;;
45806;SDS011;31507;51.494;7.518;2023-04-01T08:22:33;1.20;;;1.05;;
45806;SDS011;31507;51.494;7.518;2023-04-01T08:25:04;3.55;;;1.05;;
45806;SDS011;31507;51.494;7.518;2023-04-01T08:27:37;3.33;;;1.00;;
45806;SDS011;31507;51.494;7.518;2023-04-01T08:32:41;1.38;;;1.05;;
45806;SDS011;31507;51.494;7.518;2023-04-01T08:38:05;1.33;;;1.00;;
45806;SDS011;31507;51.494;7.518;2023-04-01T08:41:13;1.83;;;1.35;;
45806;SDS011;31507;51.494;7.518;2023-04-01T08:44:04;2.20;;;1.60;;
45806;SDS011;31507;51.494;7.518;2023-04-01T08:55:27;1.02;;;1.00;;
45806;SDS011;31507;51.494;7.518;2023-04-01T09:14:59;2.67;;;1.60;;
45806;SDS011;31507;51.494;7.518;2023-04-01T09:26:44;2.67;;;1.98;;
45806;SDS011;31507;51.494;7.518;2023-04-01T09:29:02;2.00;;;1.80;;
45806;SDS011;31507;51.494;7.518;2023-04-01T09:34:36;2.60;;;2.20;;
45806;SDS011;31507;51.494;7.518;2023-04-01T09:43:47;2.40;;;2.20;;
45806;SDS011;31507;51.494;7.518;2023-04-01T09:50:10;3.17;;;2.60;;
45806;SDS011;31507;51.494;7.518;2023-04-01T10:15:08;6.22;;;5.50;;
45806;SDS011;31507;51.494;7.518;2023-04-01T10:23:13;15.40;;;7.35;;
45806;SDS011;31507;51.494;7.518;2023-04-01T10:25:53;12.77;;;7.20;;
45806;SDS011;31507;51.494;7.518;2023-04-01T10:29:15;8.85;;;7.18;;
45806;SDS011;31507;51.494;7.518;2023-04-01T10:31:32;9.30;;;7.38;;
45806;SDS011;31507;51.494;7.518;2023-04-01T10:36:59;10.10;;;8.67;;
45806;SDS011;31507;51.494;7.518;2023-04-01T10:51:07;9.60;;;7.90;;
45806;SDS011;31507;51.494;7.518;2023-04-01T10:56:24;11.10;;;8.20;;
45806;SDS011;31507;51.494;7.518;2023-04-01T11:35:15;6.72;;;5.45;;
45806;SDS011;31507;51.494;7.518;2023-04-01T11:40:36;6.78;;;5.97;;
45806;SDS011;31507;51.494;7.518;2023-04-01T11:43:21;10.27;;;6.13;;
45806;SDS011;31507;51.494;7.518;2023-04-01T11:46:10;7.15;;;5.80;;
45806;SDS011;31507;51.494;7.518;2023-04-01T11:48:47;6.53;;;4.88;;
45806;SDS011;31507;51.494;7.518;2023-04-01T11:59:50;5.60;;;4.82;;
45806;SDS011;31507;51.494;7.518;2023-04-01T12:02:31;7.40;;;5.57;;
45806;SDS011;31507;51.494;7.518;2023-04-01T12:13:50;8.13;;;6.20;;
45806;SDS011;31507;51.494;7.518;2023-04-01T12:19:00;12.13;;;6.72;;
45806;SDS011;31507;51.494;7.518;2023-04-01T12:33:00;7.15;;;6.05;;
45806;SDS011;31507;51.494;7.518;2023-04-01T12:55:41;0.00;;;0.00;;
45806;SDS011;31507;51.494;7.518;2023-04-01T13:27:45;0.00;;;0.00;;
45806;SDS011;31507;51.494;7.518;2023-04-01T13:30:23;0.00;;;0.00;;
45806;SDS011;31507;51.494;7.518;2023-04-01T13:33:04;0.00;;;0.00;;
45806;SDS011;31507;51.494;7.518;2023-04-01T13:38:45;0.00;;;0.00;;
45806;SDS011;31507;51.494;7.518;2023-04-01T13:43:52;0.00;;;0.00;;
45806;SDS011;31507;51.494;7.518;2023-04-01T13:46:41;0.00;;;0.00;;
45806;SDS011;31507;51.494;7.518;2023-04-01T13:52:02;0.00;;;0.00;;
45806;SDS011;31507;51.494;7.518;2023-04-01T14:09:11;0.00;;;0.00;;
45806;SDS011;31507;51.494;7.518;2023-04-01T14:17:07;0.00;;;0.00;;
45806;SDS011;31507;51.494;7.518;2023-04-01T14:22:40;0.00;;;0.00;;
45806;SDS011;31507;51.494;7.518;2023-04-01T14:42:55;0.00;;;0.00;;
45806;SDS011;31507;51.494;7.518;2023-04-01T14:51:09;0.00;;;0.00;;
45806;SDS011;31507;51.494;7.518;2023-04-01T14:53:51;0.00;;;0.00;;
45806;SDS011;31507;51.494;7.518;2023-04-01T15:04:49;0.00;;;0.00;;
45806;SDS011;31507;51.494;7.518;2023-04-01T15:07:21;0.00;;;0.00;;
45806;SDS011;31507;51.494;7.518;2023-04-01T15:12:38;0.03;;;0.03;;
45806;SDS011;31507;51.494;7.518;2023-04-01T15:15:36;0.00;;;0.00;;
45806;SDS011;31507;51.494;7.518;2023-04-01T15:20:53;0.00;;;0.00;;
45806;SDS011;31507;51.494;7.518;2023-04-01T15:23:46;0.00;;;0.00;;
45806;SDS011;31507;51.494;7.518;2023-04-01T15:29:22;0.00;;;0.00;;
45806;SDS011;31507;51.494;7.518;2023-04-01T15:31:59;0.27;;;0.27;;
45806;SDS011;31507;51.494;7.518;2023-04-01T15:40:05;0.00;;;0.00;;
45806;SDS011;31507;51.494;7.518;2023-04-01T15:46:12;0.00;;;0.00;;
45806;SDS011;31507;51.494;7.518;2023-04-01T15:48:22;0.00;;;0.00;;
45806;SDS011;31507;51.494;7.518;2023-04-01T16:02:16;0.00;;;0.00;;
45806;SDS011;31507;51.494;7.518;2023-04-01T16:24:20;0.00;;;0.00;;
45806;SDS011;31507;51.494;7.518;2023-04-01T16:27:12;1.85;;;0.55;;
45806;SDS011;31507;51.494;7.518;2023-04-01T16:29:53;0.10;;;0.10;;
45806;SDS011;31507;51.494;7.518;2023-04-01T16:35:01;0.22;;;0.22;;
45806;SDS011;31507;51.494;7.518;2023-04-01T16:37:54;0.00;;;0.00;;
45806;SDS011;31507;51.494;7.518;2023-04-01T16:40:40;0.00;;;0.00;;
45806;SDS011;31507;51.494;7.518;2023-04-01T16:54:35;0.00;;;0.00;;
45806;SDS011;31507;51.494;7.518;2023-04-01T16:57:23;0.00;;;0.00;;
45806;SDS011;31507;51.494;7.518;2023-04-01T17:02:48;0.00;;;0.00;;
45806;SDS011;31507;51.494;7.518;2023-04-01T17:05:48;0.00;;;0.00;;
45806;SDS011;31507;51.494;7.518;2023-04-01T17:08:50;0.00;;;0.00;;
45806;SDS011;31507;51.494;7.518;2023-04-01T17:11:28;0.00;;;0.00;;
45806;SDS011;31507;51.494;7.518;2023-04-01T17:16:57;0.00;;;0.00;;
45806;SDS011;31507;51.494;7.518;2023-04-01T17:19:49;0.00;;;0.00;;
45806;SDS011;31507;51.494;7.518;2023-04-01T17:25:19;0.00;;;0.00;;
45806;SDS011;31507;51.494;7.518;2023-04-01T17:42:42;0.00;;;0.00;;
45806;SDS011;31507;51.494;7.518;2023-04-01T17:50:59;0.00;;;0.00;;
45806;SDS011;31507;51.494;7.518;2023-04-01T17:59:11;0.32;;;0.32;;
45806;SDS011;31507;51.494;7.518;2023-04-01T18:01:57;0.00;;;0.00;;
45806;SDS011;31507;51.494;7.518;2023-04-01T18:05:01;0.00;;;0.00;;
45806;SDS011;31507;51.494;7.518;2023-04-01T18:08:56;0.00;;;0.00;;
45806;SDS011;31507;51.494;7.518;2023-04-01T18:16:45;0.00;;;0.00;;
45806;SDS011;31507;51.494;7.518;2023-04-01T18:22:08;0.00;;;0.00;;
45806;SDS011;31507;51.494;7.518;2023-04-01T18:24:56;0.00;;;0.00;;
45806;SDS011;31507;51.494;7.518;2023-04-01T18:27:50;0.00;;;0.00;;
45806;SDS011;31507;51.494;7.518;2023-04-01T18:30:30;0.00;;;0.00;;
45806;SDS011;31507;51.494;7.518;2023-04-01T18:33:20;0.00;;;0.00;;
45806;SDS011;31507;51.494;7.518;2023-04-01T18:38:12;0.00;;;0.00;;
45806;SDS011;31507;51.494;7.518;2023-04-01T18:40:53;0.00;;;0.00;;
45806;SDS011;31507;51.494;7.518;2023-04-01T18:45:57;0.00;;;0.00;;
45806;SDS011;31507;51.494;7.518;2023-04-01T18:48:46;0.00;;;0.00;;
45806;SDS011;31507;51.494;7.518;2023-04-01T18:51:25;0.00;;;0.00;;
45806;SDS011;31507;51.494;7.518;2023-04-01T18:54:04;0.00;;;0.00;;
45806;SDS011;31507;51.494;7.518;2023-04-01T18:59:27;0.00;;;0.00;;
45806;SDS011;31507;51.494;7.518;2023-04-01T19:04:57;0.00;;;0.00;;
45806;SDS011;31507;51.494;7.518;2023-04-01T19:07:54;0.00;;;0.00;;
45806;SDS011;31507;51.494;7.518;2023-04-01T19:20:51;0.00;;;0.00;;
45806;SDS011;31507;51.494;7.518;2023-04-01T19:29:26;0.00;;;0.00;;
45806;SDS011;31507;51.494;7.518;2023-04-01T19:34:49;0.00;;;0.00;;
45806;SDS011;31507;51.494;7.518;2023-04-01T19:50:40;0.00;;;0.00;;
45806;SDS011;31507;51.494;7.518;2023-04-01T19:53:29;1.17;;;0.38;;
45806;SDS011;31507;51.494;7.518;2023-04-01T19:56:12;0.00;;;0.00;;
45806;SDS011;31507;51.494;7.518;2023-04-01T20:01:44;0.00;;;0.00;;
45806;SDS011;31507;51.494;7.518;2023-04-01T20:15:20;0.00;;;0.00;;
45806;SDS011;31507;51.494;7.518;2023-04-01T20:17:57;0.00;;;0.00;;
45806;SDS011;31507;51.494;7.518;2023-04-01T20:20:28;0.00;;;0.00;;
45806;SDS011;31507;51.494;7.518;2023-04-01T20:25:40;0.00;;;0.00;;
45806;SDS011;31507;51.494;7.518;2023-04-01T20:28:20;0.00;;;0.00;;
45806;SDS011;31507;51.494;7.518;2023-04-01T20:55:56;0.00;;;0.00;;
45806;SDS011;31507;51.494;7.518;2023-04-01T21:01:44;0.20;;;0.20;;
45806;SDS011;31507;51.494;7.518;2023-04-01T21:07:07;0.00;;;0.00;;
45806;SDS011;31507;51.494;7.518;2023-04-01T21:20:32;0.00;;;0.00;;
45806;SDS011;31507;51.494;7.518;2023-04-01T21:23:14;0.00;;;0.00;;
45806;SDS011;31507;51.494;7.518;2023-04-01T21:26:04;0.00;;;0.00;;
45806;SDS011;31507;51.494;7.518;2023-04-01T21:31:33;0.00;;;0.00;;
45806;SDS011;31507;51.494;7.518;2023-04-01T21:42:45;0.00;;;0.00;;
45806;SDS011;31507;51.494;7.518;2023-04-01T21:50:39;0.00;;;0.00;;
45806;SDS011;31507;51.494;7.518;2023-04-01T21:53:42;0.00;;;0.00;;
45806;SDS011;31507;51.494;7.518;2023-04-01T21:56:14;0.00;;;0.00;;
45806;SDS011;31507;51.494;7.518;2023-04-01T22:04:08;0.00;;;0.00;;
45806;SDS011;31507;51.494;7.518;2023-04-01T22:07:04;0.00;;;0.00;;
45806;SDS011;31507;51.494;7.518;2023-04-01T22:15:06;0.00;;;0.00;;
45806;SDS011;31507;51.494;7.518;2023-04-01T22:17:38;0.00;;;0.00;;
45806;SDS011;31507;51.494;7.518;2023-04-01T22:25:17;0.00;;;0.00;;
45806;SDS011;31507;51.494;7.518;2023-04-01T22:30:39;0.00;;;0.00;;
45806;SDS011;31507;51.494;7.518;2023-04-01T22:33:11;0.00;;;0.00;;
45806;SDS011;31507;51.494;7.518;2023-04-01T22:36:15;0.00;;;0.00;;
45806;SDS011;31507;51.494;7.518;2023-04-01T22:38:59;0.00;;;0.00;;
45806;SDS011;31507;51.494;7.518;2023-04-01T22:44:21;0.00;;;0.00;;
45806;SDS011;31507;51.494;7.518;2023-04-01T22:49:38;0.00;;;0.00;;
45806;SDS011;31507;51.494;7.518;2023-04-01T22:54:54;0.00;;;0.00;;
45806;SDS011;31507;51.494;7.518;2023-04-01T23:00:07;0.00;;;0.00;;
45806;SDS011;31507;51.494;7.518;2023-04-01T23:05:51;0.00;;;0.00;;
45806;SDS011;31507;51.494;7.518;2023-04-01T23:16:36;0.00;;;0.00;;
45806;SDS011;31507;51.494;7.518;2023-04-01T23:19:16;0.00;;;0.00;;
45806;SDS011;31507;51.494;7.518;2023-04-01T23:21:50;0.00;;;0.00;;
45806;SDS011;31507;51.494;7.518;2023-04-01T23:24:25;0.00;;;0.00;;
45806;SDS011;31507;51.494;7.518;2023-04-01T23:27:08;0.00;;;0.00;;
45806;SDS011;31507;51.494;7.518;2023-04-01T23:29:41;0.10;;;0.10;;
45806;SDS011;31507;51.494;7.518;2023-04-01T23:32:17;0.45;;;0.30;;
45806;SDS011;31507;51.494;7.518;2023-04-01T23:34:48;0.00;;;0.00;;
45806;SDS011;31507;51.494;7.518;2023-04-01T23:37:16;0.00;;;0.00;;
45806;SDS011;31507;51.494;7.518;2023-04-01T23:39:49;0.00;;;0.00;;
45806;SDS011;31507;51.494;7.518;2023-04-01T23:42:32;0.00;;;0.00;;
45806;SDS011;31507;51.494;7.518;2023-04-01T23:45:04;0.00;;;0.00;;
45806;SDS011;31507;51.494;7.518;2023-04-01T23:47:42;0.10;;;0.10;;
45806;SDS011;31507;51.494;7.518;2023-04-01T23:50:11;0.00;;;0.00;;
45806;SDS011;31507;51.494;7.518;2023-04-01T23:52:46;0.00;;;0.00;;
45806;SDS011;31507;51.494;7.518;2023-04-01T23:55:24;0.00;;;0.00;;
